»·PEaware :: N8DL KSEA-KHQM

N8DL :: KSEA-KHQM

FLIGHT INFORMATION

Flight Status: Arrived
Operator: Privately registered:
United States
More flights under this callsign
Pilot: Dean L. (8400)
Aircraft: GATES LEARJET LEARJET 24
(LJ24)
More flights by this aircraft type
Origin: KSEA Seattle-Tacoma Intl
United States
Destination: KHQM Bowerman
United States
More flights between these airports :: More routes between these airports
Route: +SEA7 SEA V27 HQM
File this flight plan on PilotEdge
Remarks:
Altitude:
(Current/Filed)
16,000ft
Speed:
(Current/Filed)
400kts
Departed: 21-Jun-20 02:28 PM
Arrived: 21-Jun-20 03:10 PM
Distance/Time
Traveled:
67nm/0:41
Distance/Time
To Go:
Arrived

Flight Plot

Page will automatically refresh every two minutes.

Flight plan parsing failed; only flown route is shown


Map Options




Map Legend


Flown Route
Filed Route
Departure Airport
Arrival Airport
Navaid (VOR, NDB)
Fix

Horizontal Profiles

Position Reports

Time Latitude Longitude Heading Altitude Ground
Speed
21-Jun-20 14:10 47.435898 -122.304763 90 436ft 0kts
21-Jun-20 14:11 47.435898 -122.304763 90 436ft 0kts
21-Jun-20 14:12 47.435898 -122.304763 90 436ft 0kts
21-Jun-20 14:13 47.435898 -122.304763 90 436ft 0kts
21-Jun-20 14:14 47.435898 -122.304763 90 436ft 0kts
21-Jun-20 14:15 47.435898 -122.304763 90 436ft 0kts
21-Jun-20 14:16 47.435898 -122.304762 90 436ft 0kts
21-Jun-20 14:17 47.437939 -122.305454 359 436ft 11kts
21-Jun-20 14:18 47.441848 -122.305488 0 436ft 15kts
21-Jun-20 14:19 47.444307 -122.305438 0 436ft 11kts
21-Jun-20 14:20 47.447411 -122.305423 359 436ft 17kts
21-Jun-20 14:21 47.452544 -122.306203 350 436ft 17kts
21-Jun-20 14:22 47.457337 -122.306217 0 436ft 16kts
21-Jun-20 14:23 47.461825 -122.306244 1 436ft 15kts
21-Jun-20 14:24 47.463636 -122.306331 341 436ft 0kts
21-Jun-20 14:25 47.463637 -122.306332 341 436ft 0kts
21-Jun-20 14:26 47.462876 -122.307793 183 436ft 26kts
21-Jun-20 14:27 47.419034 -122.315720 190 4027ft 253kts
21-Jun-20 14:29 47.336134 -122.318266 170 5179ft 297kts
21-Jun-20 14:30 47.271495 -122.298211 169 5970ft 286kts
21-Jun-20 14:31 47.197292 -122.303942 226 6955ft 269kts
21-Jun-20 14:32 47.198157 -122.404693 285 7967ft 259kts
21-Jun-20 14:33 47.219000 -122.507346 286 9004ft 342kts
21-Jun-20 14:34 47.245356 -122.630104 286 11481ft 288kts
21-Jun-20 14:35 47.263938 -122.717168 287 13638ft 335kts
21-Jun-20 14:36 47.287026 -122.861855 268 16004ft 399kts
21-Jun-20 14:37 47.252065 -123.011006 252 16100ft 354kts
21-Jun-20 14:38 47.221154 -123.133642 252 15957ft 306kts
21-Jun-20 14:39 47.188217 -123.259284 251 15987ft 352kts
21-Jun-20 14:40 47.150652 -123.400090 250 15990ft 384kts
21-Jun-20 14:41 47.111957 -123.544079 250 15993ft 356kts
21-Jun-20 14:42 47.076805 -123.674365 251 15294ft 329kts
21-Jun-20 14:43 47.044640 -123.794610 251 14419ft 308kts
21-Jun-20 14:43 47.019378 -123.891028 251 13630ft 302kts
21-Jun-20 14:45 46.985218 -124.023766 251 11177ft 288kts
21-Jun-20 14:46 46.949213 -124.120311 213 9075ft 267kts
21-Jun-20 14:46 46.896913 -124.152357 188 7326ft 225kts
21-Jun-20 14:48 46.827583 -124.155377 183 4874ft 214kts
21-Jun-20 14:49 46.773246 -124.158007 184 4009ft 158kts
21-Jun-20 14:49 46.727454 -124.160492 183 4041ft 243kts
21-Jun-20 14:51 46.648218 -124.164359 183 3966ft 196kts
21-Jun-20 14:51 46.609328 -124.159573 149 3991ft 165kts
21-Jun-20 14:52 46.600235 -124.091063 82 3386ft 201kts
21-Jun-20 14:53 46.611043 -124.007757 72 2826ft 212kts
21-Jun-20 14:54 46.630352 -123.932844 63 2793ft 199kts
21-Jun-20 14:55 46.656418 -123.865740 54 2792ft 193kts
21-Jun-20 14:56 46.689271 -123.804796 45 2792ft 189kts
21-Jun-20 14:57 46.727328 -123.752665 36 2790ft 187kts
21-Jun-20 14:58 46.768485 -123.710870 28 2793ft 188kts
21-Jun-20 14:59 46.811220 -123.679241 20 2789ft 188kts
21-Jun-20 15:00 46.860720 -123.654832 12 2791ft 187kts
21-Jun-20 15:01 46.913979 -123.641103 3 2364ft 204kts
21-Jun-20 15:02 46.930593 -123.639300 1 2304ft 202kts
21-Jun-20 15:03 46.961598 -123.639007 355 2275ft 186kts
21-Jun-20 15:04 47.000227 -123.653825 288 2235ft 104kts
21-Jun-20 15:05 46.999080 -123.724425 264 2308ft 194kts
21-Jun-20 15:06 46.991177 -123.789001 258 2266ft 141kts
21-Jun-20 15:07 46.982690 -123.850543 259 1761ft 154kts
21-Jun-20 15:08 46.975704 -123.899303 259 470ft 108kts
21-Jun-20 15:09 46.971489 -123.934769 257 17ft 16kts
21-Jun-20 15:10 46.970905 -123.938697 258 17ft 14kts
21-Jun-20 15:11 46.971232 -123.939944 326 17ft 0kts
21-Jun-20 15:12 46.971237 -123.939949 326 17ft 0kts
21-Jun-20 15:13 46.971242 -123.939954 326 17ft 0kts
21-Jun-20 15:14 46.971247 -123.939958 326 17ft 0kts
21-Jun-20 15:15 46.971252 -123.939963 326 17ft 0kts
21-Jun-20 15:16 46.971258 -123.939969 326 17ft 0kts
21-Jun-20 15:17 46.972339 -123.927288 259 17ft 0kts
21-Jun-20 15:18 46.972115 -123.929250 260 17ft 66kts
21-Jun-20 15:19 46.962106 -124.010701 255 3629ft 270kts
21-Jun-20 15:20 46.998958 -124.081498 15 3035ft 249kts
21-Jun-20 15:21 47.037592 -124.011791 65 2990ft 206kts
21-Jun-20 15:22 47.054860 -123.940095 70 2992ft 185kts
21-Jun-20 15:23 47.071846 -123.865546 70 2414ft 201kts

Navigation Log

Ident Type
Flight plan parsing failed, navigation log unavailable